Time;durP1;ratioP1;P1;durP2;ratioP2;P2;SDS_P1;SDS_P2;PMS_P1;PMS_P2;Temp;Humidity;BMP_temperature;BMP_pressure;BME280_temperature;BME280_humidity;BME280_pressure;Samples;Min_cycle;Max_cycle;Signal;HPM_P1;HPM_P2
2022/09/16 00:00:45;;;;;;;4.23;1.90;;;;;;;;;;5035108;28;20422;-49
2022/09/16 00:03:11;;;;;;;2.73;1.93;;;;;;;;;;5042676;28;20430;-50
2022/09/16 00:05:44;;;;;;;5.50;1.83;;;;;;;;;;5053615;28;20935;-49
2022/09/16 00:08:11;;;;;;;4.93;2.10;;;;;;;;;;5052612;28;20787;-47
2022/09/16 00:10:37;;;;;;;3.73;1.80;;;;;;;;;;5054332;28;20401;-46
2022/09/16 00:13:03;;;;;;;2.70;1.53;;;;;;;;;;5044100;28;20408;-46
2022/09/16 00:15:29;;;;;;;2.27;1.93;;;;;;;;;;5033941;28;20507;-45
2022/09/16 00:17:55;;;;;;;5.90;2.10;;;;;;;;;;5038257;28;20504;-46
2022/09/16 00:20:21;;;;;;;8.90;2.23;;;;;;;;;;5044018;28;20408;-46
2022/09/16 00:22:47;;;;;;;4.13;1.93;;;;;;;;;;5054047;28;20420;-46
2022/09/16 00:25:13;;;;;;;3.10;2.20;;;;;;;;;;5036733;28;20457;-46
2022/09/16 00:27:39;;;;;;;2.43;1.53;;;;;;;;;;5034379;28;20572;-46
2022/09/16 00:30:05;;;;;;;5.33;2.33;;;;;;;;;;5052645;28;20505;-46
2022/09/16 00:32:31;;;;;;;2.77;1.97;;;;;;;;;;5045113;28;20423;-45
2022/09/16 00:34:57;;;;;;;5.83;2.20;;;;;;;;;;5036002;28;20419;-46
2022/09/16 00:37:23;;;;;;;5.00;1.90;;;;;;;;;;5051010;28;20468;-46
2022/09/16 00:39:49;;;;;;;7.23;1.70;;;;;;;;;;5038700;28;20419;-45
2022/09/16 00:42:16;;;;;;;3.63;1.97;;;;;;;;;;5051157;28;20420;-46
2022/09/16 00:44:51;;;;;;;2.60;1.83;;;;;;;;;;5041290;28;20412;-46
2022/09/16 00:47:23;;;;;;;4.70;1.87;;;;;;;;;;5052705;28;20434;-46
2022/09/16 00:49:49;;;;;;;2.47;1.70;;;;;;;;;;5052926;28;20513;-46
2022/09/16 00:52:16;;;;;;;3.90;1.87;;;;;;;;;;5053391;28;20418;-46
2022/09/16 00:54:42;;;;;;;6.00;1.60;;;;;;;;;;5040487;28;20404;-47
2022/09/16 00:57:09;;;;;;;2.20;1.80;;;;;;;;;;5032667;28;20470;-46
2022/09/16 00:59:37;;;;;;;2.40;1.67;;;;;;;;;;5051109;28;20389;-47
2022/09/16 01:02:07;;;;;;;5.03;1.80;;;;;;;;;;5045603;28;20480;-46
2022/09/16 01:04:36;;;;;;;3.37;2.10;;;;;;;;;;5032821;28;20433;-46
2022/09/16 01:07:02;;;;;;;2.93;1.67;;;;;;;;;;5036741;28;20431;-46
2022/09/16 01:09:29;;;;;;;3.63;1.90;;;;;;;;;;5045839;28;20909;-46
2022/09/16 01:11:55;;;;;;;2.20;1.60;;;;;;;;;;5035540;28;20513;-46
2022/09/16 01:17:19;;;;;;;2.50;1.73;;;;;;;;;;5050444;28;20523;-45
2022/09/16 01:19:45;;;;;;;5.33;2.07;;;;;;;;;;5052787;28;20399;-46
2022/09/16 01:22:26;;;;;;;4.80;1.80;;;;;;;;;;5034419;28;20532;-46
2022/09/16 01:25:11;;;;;;;4.23;1.90;;;;;;;;;;5032862;28;20888;-46
2022/09/16 01:27:55;;;;;;;2.80;1.67;;;;;;;;;;5047583;28;20448;-46
2022/09/16 01:30:40;;;;;;;7.07;2.23;;;;;;;;;;5049421;28;20474;-46
2022/09/16 01:33:11;;;;;;;6.87;1.60;;;;;;;;;;5032444;28;20730;-45
2022/09/16 01:35:44;;;;;;;11.57;2.03;;;;;;;;;;5038167;28;20509;-46
2022/09/16 01:38:13;;;;;;;2.10;1.70;;;;;;;;;;5051905;28;20485;-46
2022/09/16 01:40:39;;;;;;;8.20;2.07;;;;;;;;;;5046995;28;20460;-46
2022/09/16 01:43:14;;;;;;;7.53;2.10;;;;;;;;;;5032762;28;20403;-46
2022/09/16 01:45:46;;;;;;;2.80;1.80;;;;;;;;;;5038037;28;20420;-46
2022/09/16 01:48:18;;;;;;;3.53;1.70;;;;;;;;;;5051732;28;20452;-46
2022/09/16 01:50:49;;;;;;;8.83;1.77;;;;;;;;;;5046142;28;20508;-46
2022/09/16 01:53:25;;;;;;;4.60;2.20;;;;;;;;;;5032930;28;20395;-46
2022/09/16 01:55:57;;;;;;;5.43;2.20;;;;;;;;;;5038795;28;20528;-46
2022/09/16 01:58:42;;;;;;;2.70;1.80;;;;;;;;;;5051689;28;20423;-46
2022/09/16 02:01:37;;;;;;;5.47;2.33;;;;;;;;;;5042943;28;20911;-46
2022/09/16 02:04:07;;;;;;;5.53;1.83;;;;;;;;;;5042577;28;20493;-46
2022/09/16 02:06:33;;;;;;;4.83;1.80;;;;;;;;;;5049900;28;20462;-45
2022/09/16 02:09:09;;;;;;;7.17;2.20;;;;;;;;;;5051815;28;20428;-47
2022/09/16 02:11:36;;;;;;;8.00;1.93;;;;;;;;;;5048804;28;20992;-45
2022/09/16 02:14:04;;;;;;;1.70;1.57;;;;;;;;;;5032249;28;20396;-45
2022/09/16 02:16:34;;;;;;;2.67;1.23;;;;;;;;;;5032982;28;20450;-46
2022/09/16 02:19:01;;;;;;;5.83;1.93;;;;;;;;;;5051538;28;20430;-46
2022/09/16 02:21:30;;;;;;;5.73;1.80;;;;;;;;;;5050217;28;20406;-47
2022/09/16 02:23:59;;;;;;;4.47;1.60;;;;;;;;;;5031960;28;20417;-46
2022/09/16 02:26:27;;;;;;;4.10;2.03;;;;;;;;;;5031892;28;20518;-46
2022/09/16 02:28:54;;;;;;;2.40;1.40;;;;;;;;;;5048505;28;20455;-46
2022/09/16 02:31:24;;;;;;;6.03;1.63;;;;;;;;;;5051701;28;20403;-46
2022/09/16 02:33:55;;;;;;;2.70;1.60;;;;;;;;;;5033559;28;20920;-46
2022/09/16 02:36:22;;;;;;;3.77;1.70;;;;;;;;;;5031121;28;20454;-47
2022/09/16 02:38:51;;;;;;;9.20;1.90;;;;;;;;;;5049992;28;20421;-46
2022/09/16 02:41:17;;;;;;;1.90;1.80;;;;;;;;;;5051787;28;20404;-46
2022/09/16 02:43:45;;;;;;;5.37;2.30;;;;;;;;;;5033289;28;20489;-48
2022/09/16 02:46:19;;;;;;;4.90;2.13;;;;;;;;;;5031039;28;20769;-46
2022/09/16 02:48:58;;;;;;;3.20;2.23;;;;;;;;;;5050089;28;20444;-45
2022/09/16 02:51:56;;;;;;;3.27;2.67;;;;;;;;;;5051598;28;20402;-47
2022/09/16 02:54:28;;;;;;;8.73;2.63;;;;;;;;;;5019604;28;20426;-46
2022/09/16 02:56:55;;;;;;;11.00;2.60;;;;;;;;;;5034002;28;20622;-46
2022/09/16 02:59:21;;;;;;;4.93;2.20;;;;;;;;;;5051148;28;20406;-46
2022/09/16 03:01:47;;;;;;;3.63;1.97;;;;;;;;;;5049685;28;20425;-46
2022/09/16 03:04:15;;;;;;;8.43;2.70;;;;;;;;;;5031592;28;20410;-46
2022/09/16 03:06:41;;;;;;;6.00;2.30;;;;;;;;;;5031708;28;20431;-46
2022/09/16 03:09:11;;;;;;;4.50;2.20;;;;;;;;;;5051536;28;20509;-47
2022/09/16 03:11:40;;;;;;;3.13;1.80;;;;;;;;;;5050928;28;20453;-46
2022/09/16 03:14:24;;;;;;;2.50;1.90;;;;;;;;;;5031445;28;20435;-46
2022/09/16 03:16:59;;;;;;;7.53;2.07;;;;;;;;;;5032481;28;20906;-46
2022/09/16 03:19:31;;;;;;;9.97;2.57;;;;;;;;;;5051034;28;20418;-46
2022/09/16 03:22:02;;;;;;;4.80;2.53;;;;;;;;;;5048722;28;20432;-46
2022/09/16 03:24:39;;;;;;;4.27;2.27;;;;;;;;;;5035246;28;20752;-45
2022/09/16 03:27:11;;;;;;;6.73;2.33;;;;;;;;;;5038229;28;20429;-46
2022/09/16 03:29:38;;;;;;;8.20;2.00;;;;;;;;;;5054718;28;20821;-46
2022/09/16 03:32:22;;;;;;;4.33;1.90;;;;;;;;;;5051855;28;20915;-46
2022/09/16 03:34:50;;;;;;;12.50;2.20;;;;;;;;;;5035231;28;20772;-46
2022/09/16 03:37:17;;;;;;;11.73;2.50;;;;;;;;;;5039486;28;20493;-45
2022/09/16 03:39:48;;;;;;;2.70;2.13;;;;;;;;;;5054888;28;20753;-47
2022/09/16 03:42:14;;;;;;;2.07;1.90;;;;;;;;;;5050478;28;20428;-48
2022/09/16 03:44:40;;;;;;;9.47;2.13;;;;;;;;;;5034887;28;20928;-45
2022/09/16 03:47:07;;;;;;;6.20;2.47;;;;;;;;;;5037361;28;20440;-47
2022/09/16 03:49:33;;;;;;;4.40;2.20;;;;;;;;;;5054586;28;20414;-46
2022/09/16 03:52:00;;;;;;;5.47;1.90;;;;;;;;;;5052556;28;20444;-45
2022/09/16 03:54:26;;;;;;;4.27;2.30;;;;;;;;;;5040377;28;20551;-46
2022/09/16 03:56:53;;;;;;;2.33;1.83;;;;;;;;;;5053312;28;20523;-45
2022/09/16 03:59:19;;;;;;;2.63;2.00;;;;;;;;;;5034556;28;20418;-45
2022/09/16 04:01:45;;;;;;;2.93;1.73;;;;;;;;;;5034417;28;20779;-46
2022/09/16 04:04:11;;;;;;;2.87;2.20;;;;;;;;;;5053157;28;20413;-45
2022/09/16 04:06:37;;;;;;;7.40;2.10;;;;;;;;;;5053796;28;20433;-46
2022/09/16 04:09:05;;;;;;;7.27;2.30;;;;;;;;;;5043891;28;20423;-46
2022/09/16 04:11:31;;;;;;;1.90;1.50;;;;;;;;;;5034238;28;20406;-46
2022/09/16 04:13:57;;;;;;;2.63;2.40;;;;;;;;;;5051853;28;20437;-46
2022/09/16 04:16:24;;;;;;;3.40;1.70;;;;;;;;;;5048820;28;20977;-46
2022/09/16 04:18:50;;;;;;;2.50;2.17;;;;;;;;;;5054195;28;20411;-46
2022/09/16 04:21:16;;;;;;;5.37;2.80;;;;;;;;;;5050912;28;20509;-45
2022/09/16 04:23:42;;;;;;;7.77;3.13;;;;;;;;;;5034128;28;20833;-46
2022/09/16 04:26:10;;;;;;;3.00;2.23;;;;;;;;;;5035527;28;20474;-45
2022/09/16 04:28:36;;;;;;;4.93;2.20;;;;;;;;;;5054248;28;20401;-46
2022/09/16 04:31:02;;;;;;;4.70;2.53;;;;;;;;;;5053061;28;20454;-46
2022/09/16 04:33:29;;;;;;;4.40;2.30;;;;;;;;;;5034000;28;20450;-46
2022/09/16 04:36:02;;;;;;;3.37;2.13;;;;;;;;;;5033755;28;20699;-46
2022/09/16 04:38:28;;;;;;;3.20;2.93;;;;;;;;;;5054074;28;20403;-45
2022/09/16 04:40:59;;;;;;;4.07;2.00;;;;;;;;;;5053693;28;20402;-46
2022/09/16 04:43:25;;;;;;;7.43;2.30;;;;;;;;;;5033922;28;20438;-46
2022/09/16 04:45:51;;;;;;;4.40;1.83;;;;;;;;;;5033574;28;20428;-46
2022/09/16 04:48:18;;;;;;;2.77;2.43;;;;;;;;;;5045294;28;20419;-47
2022/09/16 04:50:44;;;;;;;6.10;2.23;;;;;;;;;;5033665;28;20395;-48
2022/09/16 04:53:10;;;;;;;12.23;4.20;;;;;;;;;;5033534;28;20410;-46
2022/09/16 04:55:36;;;;;;;9.63;2.43;;;;;;;;;;5033302;28;20532;-46
2022/09/16 04:58:02;;;;;;;2.73;2.00;;;;;;;;;;5034061;28;20440;-46
2022/09/16 05:00:28;;;;;;;3.10;2.10;;;;;;;;;;5033772;28;20396;-46
2022/09/16 05:02:54;;;;;;;4.20;2.13;;;;;;;;;;5048542;28;20434;-46
2022/09/16 05:05:21;;;;;;;6.50;1.93;;;;;;;;;;5053185;28;20407;-46
2022/09/16 05:07:47;;;;;;;4.10;1.90;;;;;;;;;;5037407;28;20438;-47
2022/09/16 05:10:13;;;;;;;6.93;2.20;;;;;;;;;;5033675;28;20407;-46
2022/09/16 05:12:39;;;;;;;8.93;2.43;;;;;;;;;;5046376;28;20436;-48
2022/09/16 05:15:06;;;;;;;5.60;1.93;;;;;;;;;;5053517;28;20405;-46
2022/09/16 05:17:32;;;;;;;5.50;2.00;;;;;;;;;;5039342;28;20472;-46
2022/09/16 05:19:58;;;;;;;5.93;2.27;;;;;;;;;;5033145;28;20377;-46
2022/09/16 05:22:24;;;;;;;2.90;2.17;;;;;;;;;;5043742;28;20423;-47
2022/09/16 05:24:50;;;;;;;4.77;2.50;;;;;;;;;;5052920;28;20398;-46
2022/09/16 05:27:16;;;;;;;6.47;1.83;;;;;;;;;;5042099;28;20449;-45
2022/09/16 05:29:42;;;;;;;6.00;2.17;;;;;;;;;;5032811;28;20405;-46
2022/09/16 05:32:08;;;;;;;7.90;2.53;;;;;;;;;;5032908;28;20416;-45
2022/09/16 05:34:35;;;;;;;4.27;2.10;;;;;;;;;;5033111;28;20399;-46
2022/09/16 05:37:01;;;;;;;2.30;2.10;;;;;;;;;;5033263;28;21017;-46
2022/09/16 05:39:28;;;;;;;6.60;2.10;;;;;;;;;;5032662;28;20414;-46
2022/09/16 05:41:57;;;;;;;4.47;2.10;;;;;;;;;;5052324;28;20521;-46
2022/09/16 05:44:23;;;;;;;4.07;1.80;;;;;;;;;;5052587;28;20408;-46
2022/09/16 05:46:49;;;;;;;5.73;2.50;;;;;;;;;;5049370;28;20442;-46
2022/09/16 05:49:19;;;;;;;4.47;2.13;;;;;;;;;;5052215;28;20401;-46
2022/09/16 05:51:46;;;;;;;6.77;2.50;;;;;;;;;;5034667;28;20911;-46
2022/09/16 05:54:12;;;;;;;3.33;2.00;;;;;;;;;;5032336;28;20412;-45
2022/09/16 05:56:38;;;;;;;12.77;2.60;;;;;;;;;;5048438;28;20497;-46
2022/09/16 05:59:05;;;;;;;5.00;2.23;;;;;;;;;;5052308;28;20847;-45
2022/09/16 06:01:34;;;;;;;4.03;2.07;;;;;;;;;;5036802;28;20423;-47
2022/09/16 06:04:01;;;;;;;3.73;1.93;;;;;;;;;;5032104;28;20750;-46
2022/09/16 06:06:35;;;;;;;5.77;2.63;;;;;;;;;;5032572;28;20450;-46
2022/09/16 06:09:04;;;;;;;2.90;2.20;;;;;;;;;;5032762;28;20458;-47
2022/09/16 06:11:31;;;;;;;5.10;2.40;;;;;;;;;;5047009;28;20425;-46
2022/09/16 06:13:58;;;;;;;8.20;2.57;;;;;;;;;;5051882;28;20402;-47
2022/09/16 06:16:25;;;;;;;3.00;1.90;;;;;;;;;;5036646;28;20998;-46
2022/09/16 06:18:52;;;;;;;4.53;2.83;;;;;;;;;;5031920;28;20403;-48
2022/09/16 06:21:18;;;;;;;3.80;2.43;;;;;;;;;;5044627;28;20415;-46
2022/09/16 06:23:44;;;;;;;5.17;2.53;;;;;;;;;;5051852;28;20442;-47
2022/09/16 06:26:17;;;;;;;8.00;3.00;;;;;;;;;;5038851;28;20468;-46
2022/09/16 06:28:43;;;;;;;4.20;2.77;;;;;;;;;;5031710;28;20403;-46
2022/09/16 06:31:13;;;;;;;9.77;2.93;;;;;;;;;;5043142;28;20826;-48
2022/09/16 06:33:39;;;;;;;6.70;2.50;;;;;;;;;;5051783;28;20408;-47
2022/09/16 06:36:16;;;;;;;4.83;2.80;;;;;;;;;;5039902;28;20519;-47
2022/09/16 06:38:42;;;;;;;5.63;2.77;;;;;;;;;;5031776;28;20401;-47
2022/09/16 06:41:09;;;;;;;5.80;2.50;;;;;;;;;;5033800;28;20819;-48
2022/09/16 06:43:36;;;;;;;4.63;2.97;;;;;;;;;;5031438;28;20423;-47
2022/09/16 06:46:04;;;;;;;7.70;3.23;;;;;;;;;;5041855;28;20442;-47
2022/09/16 06:48:32;;;;;;;7.03;3.40;;;;;;;;;;5051031;28;20411;-47
2022/09/16 06:50:59;;;;;;;4.60;2.77;;;;;;;;;;5041971;28;20426;-47
2022/09/16 06:53:25;;;;;;;3.90;2.77;;;;;;;;;;5043890;28;20826;-47
2022/09/16 06:55:51;;;;;;;8.50;2.80;;;;;;;;;;5043624;28;20473;-48
2022/09/16 06:58:17;;;;;;;9.27;3.03;;;;;;;;;;5033206;28;20416;-48
2022/09/16 07:00:43;;;;;;;2.43;2.23;;;;;;;;;;5036678;28;20422;-46
2022/09/16 07:03:09;;;;;;;9.60;3.20;;;;;;;;;;5035668;28;20522;-47
2022/09/16 07:05:35;;;;;;;7.13;2.90;;;;;;;;;;5039483;28;20416;-47
2022/09/16 07:08:01;;;;;;;5.90;2.30;;;;;;;;;;5054961;28;20400;-47
2022/09/16 07:10:29;;;;;;;7.03;2.50;;;;;;;;;;5052619;28;20439;-47
2022/09/16 07:12:55;;;;;;;5.10;2.80;;;;;;;;;;5035558;28;20424;-47
2022/09/16 07:15:21;;;;;;;7.33;2.50;;;;;;;;;;5037156;28;20412;-47
2022/09/16 07:17:47;;;;;;;3.87;3.03;;;;;;;;;;5054589;28;20545;-47
2022/09/16 07:20:13;;;;;;;15.33;2.80;;;;;;;;;;5054716;28;20498;-47
2022/09/16 07:22:39;;;;;;;6.27;2.80;;;;;;;;;;5035421;28;20404;-47
2022/09/16 07:25:05;;;;;;;4.43;2.57;;;;;;;;;;5034877;28;20401;-47
2022/09/16 07:27:31;;;;;;;8.10;2.93;;;;;;;;;;5054576;28;20439;-47
2022/09/16 07:29:57;;;;;;;6.47;2.43;;;;;;;;;;5053731;28;20414;-47
2022/09/16 07:32:23;;;;;;;7.13;3.00;;;;;;;;;;5053410;28;20467;-47
2022/09/16 07:34:49;;;;;;;11.80;3.67;;;;;;;;;;5054800;28;20868;-47
2022/09/16 07:37:16;;;;;;;6.93;3.30;;;;;;;;;;5052636;28;20464;-47
2022/09/16 07:39:43;;;;;;;6.00;2.67;;;;;;;;;;5053847;28;20404;-47
2022/09/16 07:42:09;;;;;;;16.23;3.80;;;;;;;;;;5053597;28;20794;-47
2022/09/16 07:44:35;;;;;;;11.37;2.97;;;;;;;;;;5034693;28;20425;-47
2022/09/16 07:47:01;;;;;;;3.93;2.90;;;;;;;;;;5033970;28;20433;-47
2022/09/16 07:49:27;;;;;;;9.13;4.10;;;;;;;;;;5052960;28;20420;-46
2022/09/16 07:51:53;;;;;;;8.83;3.80;;;;;;;;;;5054913;28;20409;-47
2022/09/16 07:54:19;;;;;;;8.67;4.27;;;;;;;;;;5036233;28;20495;-47
2022/09/16 07:56:45;;;;;;;6.07;3.80;;;;;;;;;;5034236;28;20471;-47
2022/09/16 07:59:12;;;;;;;3.50;3.20;;;;;;;;;;5050404;28;20509;-47
2022/09/16 08:01:38;;;;;;;13.90;4.00;;;;;;;;;;5054549;28;20503;-47
2022/09/16 08:04:04;;;;;;;7.30;4.83;;;;;;;;;;5038951;28;21011;-47
2022/09/16 08:06:32;;;;;;;7.03;4.00;;;;;;;;;;5034998;28;20465;-47
2022/09/16 08:08:59;;;;;;;5.60;3.60;;;;;;;;;;5047606;28;20398;-47
2022/09/16 08:11:26;;;;;;;4.70;3.90;;;;;;;;;;5054566;28;20401;-47
2022/09/16 08:13:52;;;;;;;12.33;4.60;;;;;;;;;;5041609;28;20429;-47
2022/09/16 08:16:19;;;;;;;6.73;4.77;;;;;;;;;;5033512;28;20433;-47
2022/09/16 08:18:46;;;;;;;5.43;4.03;;;;;;;;;;5044828;28;20391;-48
2022/09/16 08:21:13;;;;;;;4.83;4.00;;;;;;;;;;5054221;28;20372;-47
2022/09/16 08:23:40;;;;;;;8.43;4.53;;;;;;;;;;5043325;28;20754;-47
2022/09/16 08:26:07;;;;;;;4.97;4.47;;;;;;;;;;5033943;28;20447;-47
2022/09/16 08:28:33;;;;;;;16.00;5.57;;;;;;;;;;5042685;28;20791;-47
2022/09/16 08:31:00;;;;;;;4.93;4.43;;;;;;;;;;5054074;28;20432;-48
2022/09/16 08:33:26;;;;;;;11.20;4.03;;;;;;;;;;5045358;28;20412;-46
2022/09/16 08:36:01;;;;;;;4.87;4.00;;;;;;;;;;5040969;28;20420;-48
2022/09/16 08:38:27;;;;;;;4.83;3.10;;;;;;;;;;5045889;28;20393;-48
2022/09/16 08:41:00;;;;;;;6.00;3.20;;;;;;;;;;5033636;28;20442;-47
2022/09/16 08:43:35;;;;;;;5.60;3.20;;;;;;;;;;5042183;28;20171;-47
2022/09/16 08:46:09;;;;;;;3.40;2.80;;;;;;;;;;5037363;28;20487;-47
2022/09/16 08:48:49;;;;;;;3.83;2.70;;;;;;;;;;5039924;28;20413;-47
2022/09/16 08:51:17;;;;;;;5.97;2.33;;;;;;;;;;5070378;28;20375;-47
2022/09/16 08:53:47;;;;;;;8.17;3.33;;;;;;;;;;5061548;28;20463;-48
2022/09/16 08:56:19;;;;;;;2.87;2.00;;;;;;;;;;5052983;28;21209;-48
2022/09/16 08:58:47;;;;;;;11.60;2.60;;;;;;;;;;5041884;28;20421;-47
2022/09/16 09:01:19;;;;;;;9.40;2.30;;;;;;;;;;5050856;28;20960;-47
2022/09/16 09:03:46;;;;;;;4.30;2.00;;;;;;;;;;5039415;28;20430;-47
2022/09/16 09:06:20;;;;;;;2.77;1.80;;;;;;;;;;5039118;28;20505;-47
2022/09/16 09:08:46;;;;;;;2.13;1.77;;;;;;;;;;5053142;28;20500;-46
2022/09/16 09:11:12;;;;;;;3.60;1.70;;;;;;;;;;5045680;28;20900;-48
2022/09/16 09:13:38;;;;;;;3.70;2.10;;;;;;;;;;5033098;28;20410;-47
2022/09/16 09:16:04;;;;;;;3.20;1.73;;;;;;;;;;5039738;28;20437;-48
2022/09/16 09:18:41;;;;;;;6.83;2.03;;;;;;;;;;5037730;28;20407;-47
2022/09/16 09:21:10;;;;;;;2.77;1.93;;;;;;;;;;5033088;28;20475;-47
2022/09/16 09:23:43;;;;;;;3.83;1.83;;;;;;;;;;5041824;28;20488;-48
2022/09/16 09:26:09;;;;;;;2.73;1.43;;;;;;;;;;5051133;28;20427;-48
2022/09/16 09:29:03;;;;;;;6.53;1.37;;;;;;;;;;5052196;28;20407;-48
2022/09/16 09:31:28;;;;;;;1.93;1.50;;;;;;;;;;5039922;28;20423;-48
2022/09/16 09:33:54;;;;;;;5.07;1.67;;;;;;;;;;5052487;28;20418;-47
2022/09/16 09:36:39;;;;;;;2.00;1.53;;;;;;;;;;5044829;28;20462;-47
2022/09/16 09:39:08;;;;;;;4.50;1.60;;;;;;;;;;5036407;28;20454;-47
2022/09/16 09:41:38;;;;;;;1.83;1.70;;;;;;;;;;5052230;28;20778;-47
2022/09/16 09:44:20;;;;;;;3.63;1.77;;;;;;;;;;5040412;28;20390;-47
2022/09/16 09:46:49;;;;;;;5.60;2.03;;;;;;;;;;5049139;28;20411;-47
2022/09/16 09:49:30;;;;;;;3.17;1.47;;;;;;;;;;5038092;28;20921;-47
2022/09/16 09:52:02;;;;;;;3.70;1.70;;;;;;;;;;5049330;28;20419;-47
2022/09/16 09:54:29;;;;;;;2.80;1.90;;;;;;;;;;5039967;28;20438;-47
2022/09/16 09:57:07;;;;;;;2.87;2.17;;;;;;;;;;5038182;28;20447;-47
2022/09/16 09:59:36;;;;;;;2.03;1.43;;;;;;;;;;5039811;28;20417;-47
2022/09/16 10:02:02;;;;;;;3.97;1.50;;;;;;;;;;5054672;28;20457;-47
2022/09/16 10:04:31;;;;;;;4.13;1.90;;;;;;;;;;5052092;28;20384;-47
2022/09/16 10:06:57;;;;;;;10.80;1.57;;;;;;;;;;5042778;28;20426;-47
2022/09/16 10:09:24;;;;;;;4.33;1.47;;;;;;;;;;5031923;28;20489;-47
2022/09/16 10:11:55;;;;;;;2.70;1.40;;;;;;;;;;5031998;28;20438;-46
2022/09/16 10:14:26;;;;;;;4.60;2.00;;;;;;;;;;5032256;28;20756;-47
2022/09/16 10:16:53;;;;;;;3.37;2.03;;;;;;;;;;5031246;28;20451;-46
2022/09/16 10:19:21;;;;;;;3.00;1.70;;;;;;;;;;5050518;28;20817;-47
2022/09/16 10:21:52;;;;;;;2.80;1.50;;;;;;;;;;5069018;28;20904;-47
2022/09/16 10:24:28;;;;;;;3.93;1.37;;;;;;;;;;5054835;28;20407;-46
2022/09/16 10:26:55;;;;;;;2.77;1.33;;;;;;;;;;5047517;28;20422;-47
2022/09/16 10:29:21;;;;;;;1.90;1.50;;;;;;;;;;5048153;28;20501;-47
2022/09/16 10:31:47;;;;;;;2.17;1.40;;;;;;;;;;5051295;28;20410;-47
2022/09/16 10:34:28;;;;;;;5.80;1.43;;;;;;;;;;5063862;28;20513;-47
2022/09/16 10:37:00;;;;;;;5.80;1.13;;;;;;;;;;5067410;28;20478;-47
2022/09/16 10:39:27;;;;;;;1.93;1.13;;;;;;;;;;5053680;28;20897;-47
2022/09/16 10:41:53;;;;;;;1.20;1.00;;;;;;;;;;5043114;28;20783;-48
2022/09/16 10:44:25;;;;;;;2.70;1.20;;;;;;;;;;5051715;28;20484;-47
2022/09/16 10:46:56;;;;;;;5.37;1.30;;;;;;;;;;5050867;28;20758;-47
2022/09/16 10:49:28;;;;;;;5.90;1.10;;;;;;;;;;5051221;28;20466;-48
2022/09/16 10:51:54;;;;;;;3.67;1.30;;;;;;;;;;5051625;28;20417;-47
2022/09/16 10:54:27;;;;;;;4.60;1.00;;;;;;;;;;5051544;28;20403;-47
2022/09/16 10:56:53;;;;;;;7.00;1.50;;;;;;;;;;5032268;28;20466;-48
2022/09/16 10:59:20;;;;;;;1.90;1.20;;;;;;;;;;5031374;28;20418;-47
2022/09/16 11:01:55;;;;;;;2.33;1.20;;;;;;;;;;5032127;28;21007;-47
2022/09/16 11:04:31;;;;;;;1.93;1.13;;;;;;;;;;5051217;28;20400;-47
2022/09/16 11:07:00;;;;;;;3.67;1.30;;;;;;;;;;5048805;28;20565;-47
2022/09/16 11:09:32;;;;;;;1.73;1.00;;;;;;;;;;5050916;28;20779;-47
2022/09/16 11:12:01;;;;;;;1.67;1.07;;;;;;;;;;5031074;28;20449;-47
2022/09/16 11:14:36;;;;;;;2.27;1.00;;;;;;;;;;5034932;28;20431;-48
2022/09/16 11:17:21;;;;;;;1.43;1.00;;;;;;;;;;5043985;28;20808;-47
2022/09/16 11:19:57;;;;;;;1.50;1.37;;;;;;;;;;5051128;28;20431;-47
2022/09/16 11:22:31;;;;;;;6.60;2.13;;;;;;;;;;5040876;28;20421;-47
2022/09/16 11:25:07;;;;;;;3.00;0.90;;;;;;;;;;5039345;28;20450;-47
2022/09/16 11:27:38;;;;;;;4.13;1.13;;;;;;;;;;5032401;28;20467;-48
2022/09/16 11:30:10;;;;;;;2.60;1.57;;;;;;;;;;5045171;28;20483;-47
2022/09/16 11:32:42;;;;;;;6.20;1.23;;;;;;;;;;5048860;28;20435;-48
2022/09/16 11:35:23;;;;;;;2.53;1.13;;;;;;;;;;5030887;28;20941;-48
2022/09/16 11:37:59;;;;;;;4.23;1.23;;;;;;;;;;5037706;28;20469;-47
2022/09/16 11:40:25;;;;;;;1.80;0.90;;;;;;;;;;5045483;28;20500;-49
2022/09/16 11:42:51;;;;;;;1.13;0.80;;;;;;;;;;5037684;28;20421;-48
2022/09/16 11:45:39;;;;;;;3.03;1.30;;;;;;;;;;5034850;28;20418;-47
2022/09/16 11:48:17;;;;;;;3.23;1.23;;;;;;;;;;5049333;28;20508;-48
2022/09/16 11:51:06;;;;;;;1.97;0.97;;;;;;;;;;5038749;28;20463;-48
2022/09/16 11:53:42;;;;;;;1.90;0.90;;;;;;;;;;5035158;28;20447;-48
2022/09/16 11:56:27;;;;;;;2.50;1.07;;;;;;;;;;5051805;28;20434;-47
2022/09/16 11:58:56;;;;;;;2.60;1.00;;;;;;;;;;5042097;28;20418;-49
2022/09/16 12:01:24;;;;;;;6.60;1.30;;;;;;;;;;5049512;28;20761;-47
2022/09/16 12:03:54;;;;;;;1.20;0.80;;;;;;;;;;5035914;28;20500;-47
2022/09/16 12:06:23;;;;;;;1.63;0.93;;;;;;;;;;5047341;28;20433;-48
2022/09/16 12:08:52;;;;;;;2.90;1.20;;;;;;;;;;5036049;28;20467;-48
2022/09/16 12:11:18;;;;;;;1.97;1.00;;;;;;;;;;5034937;28;20644;-47
2022/09/16 12:13:47;;;;;;;3.93;1.10;;;;;;;;;;5040963;28;20447;-47
2022/09/16 12:16:15;;;;;;;1.10;1.00;;;;;;;;;;5037578;28;20450;-48
2022/09/16 12:18:43;;;;;;;2.03;1.63;;;;;;;;;;5046624;28;20502;-47
2022/09/16 12:21:15;;;;;;;5.33;1.37;;;;;;;;;;5049050;28;20426;-48
2022/09/16 12:23:44;;;;;;;3.80;1.40;;;;;;;;;;5049654;28;20417;-47
2022/09/16 12:26:12;;;;;;;5.37;1.83;;;;;;;;;;5050224;28;20890;-48
2022/09/16 12:28:38;;;;;;;7.40;2.40;;;;;;;;;;5050945;28;20920;-47
2022/09/16 12:31:17;;;;;;;1.73;1.30;;;;;;;;;;5040960;28;20444;-47
2022/09/16 12:33:45;;;;;;;5.30;1.80;;;;;;;;;;5042645;28;20875;-47
2022/09/16 12:36:15;;;;;;;6.07;1.37;;;;;;;;;;5033607;28;20440;-47
2022/09/16 12:38:41;;;;;;;4.77;1.50;;;;;;;;;;5042666;28;20433;-48
2022/09/16 12:41:23;;;;;;;2.80;1.57;;;;;;;;;;5041925;28;20716;-47
2022/09/16 12:44:07;;;;;;;2.90;1.30;;;;;;;;;;5048007;28;20445;-47
2022/09/16 12:46:35;;;;;;;1.87;1.13;;;;;;;;;;5051566;28;20947;-47
2022/09/16 12:49:13;;;;;;;2.33;1.00;;;;;;;;;;5045317;28;20971;-47
2022/09/16 12:51:51;;;;;;;1.00;0.80;;;;;;;;;;5045036;28;20419;-47
2022/09/16 12:54:53;;;;;;;0.83;0.77;;;;;;;;;;5053170;28;20398;-47
2022/09/16 12:57:24;;;;;;;5.20;1.30;;;;;;;;;;5017906;28;20448;-48
2022/09/16 12:59:59;;;;;;;1.87;0.90;;;;;;;;;;5029185;28;20460;-47
2022/09/16 13:02:48;;;;;;;7.33;1.30;;;;;;;;;;5045645;28;20465;-46
2022/09/16 13:05:23;;;;;;;1.97;1.23;;;;;;;;;;5036258;28;20767;-47
2022/09/16 13:07:53;;;;;;;1.40;0.90;;;;;;;;;;5052010;28;20479;-47
2022/09/16 13:10:33;;;;;;;6.77;2.13;;;;;;;;;;5038750;28;20425;-46
2022/09/16 13:13:00;;;;;;;2.40;1.10;;;;;;;;;;5037361;28;20412;-46
2022/09/16 13:15:29;;;;;;;2.93;1.10;;;;;;;;;;5052623;28;20779;-46
2022/09/16 13:18:06;;;;;;;3.50;1.10;;;;;;;;;;5048502;28;20489;-47
2022/09/16 13:20:34;;;;;;;1.77;1.47;;;;;;;;;;5040766;28;20416;-47
2022/09/16 13:23:17;;;;;;;8.53;1.27;;;;;;;;;;5036945;28;20412;-46
2022/09/16 13:25:49;;;;;;;2.13;1.20;;;;;;;;;;5050862;28;20426;-47
2022/09/16 13:28:34;;;;;;;1.53;1.10;;;;;;;;;;5040133;28;20428;-47
2022/09/16 13:31:16;;;;;;;2.50;1.40;;;;;;;;;;5033482;28;20781;-46
2022/09/16 13:33:42;;;;;;;5.03;1.80;;;;;;;;;;5049399;28;20823;-46
2022/09/16 13:36:21;;;;;;;4.53;2.17;;;;;;;;;;5042853;28;20501;-47
2022/09/16 13:38:48;;;;;;;2.00;1.80;;;;;;;;;;5052160;28;20398;-47
2022/09/16 13:41:27;;;;;;;2.93;1.80;;;;;;;;;;5033232;28;20416;-46
2022/09/16 13:43:54;;;;;;;6.20;1.70;;;;;;;;;;5033323;28;20396;-47
2022/09/16 13:46:49;;;;;;;7.70;1.80;;;;;;;;;;5052332;28;20499;-46
2022/09/16 13:49:17;;;;;;;5.37;1.37;;;;;;;;;;5032119;28;20969;-46
2022/09/16 13:51:44;;;;;;;4.93;1.70;;;;;;;;;;5045510;28;20517;-46
2022/09/16 13:54:26;;;;;;;3.00;1.40;;;;;;;;;;5048810;28;20768;-46
2022/09/16 13:56:58;;;;;;;2.53;1.50;;;;;;;;;;5031674;28;20463;-46
2022/09/16 13:59:38;;;;;;;2.00;1.23;;;;;;;;;;5049897;28;20420;-46
2022/09/16 14:02:04;;;;;;;2.13;1.47;;;;;;;;;;5046306;28;20470;-46
2022/09/16 14:04:53;;;;;;;9.00;1.40;;;;;;;;;;5031981;28;20422;-46
2022/09/16 14:07:31;;;;;;;6.10;1.30;;;;;;;;;;5042230;28;20448;-46
2022/09/16 14:10:06;;;;;;;2.43;1.20;;;;;;;;;;5039946;28;20439;-46
2022/09/16 14:12:33;;;;;;;10.70;1.70;;;;;;;;;;5041169;28;20802;-47
2022/09/16 14:14:59;;;;;;;6.90;1.50;;;;;;;;;;5040905;28;20904;-46
2022/09/16 14:17:27;;;;;;;2.10;1.50;;;;;;;;;;5045645;28;20979;-46
2022/09/16 14:19:56;;;;;;;5.23;1.50;;;;;;;;;;5031968;28;20421;-46
2022/09/16 14:22:24;;;;;;;2.50;1.70;;;;;;;;;;5040586;28;20415;-47
2022/09/16 14:24:50;;;;;;;1.60;1.50;;;;;;;;;;5043583;28;20412;-47
2022/09/16 14:27:21;;;;;;;6.47;2.13;;;;;;;;;;5046234;28;20480;-47
2022/09/16 14:29:57;;;;;;;2.37;1.50;;;;;;;;;;5037307;28;20419;-47
2022/09/16 14:32:24;;;;;;;3.53;1.40;;;;;;;;;;5051830;28;20380;-47
2022/09/16 14:34:51;;;;;;;2.60;1.50;;;;;;;;;;5033399;28;20432;-47
2022/09/16 14:37:18;;;;;;;5.90;1.33;;;;;;;;;;5035879;28;20816;-48
2022/09/16 14:39:45;;;;;;;4.17;1.87;;;;;;;;;;5047024;28;20920;-48
2022/09/16 14:42:16;;;;;;;1.33;1.20;;;;;;;;;;5042590;28;20440;-51
2022/09/16 14:44:44;;;;;;;2.07;1.37;;;;;;;;;;5036049;28;20772;-50
2022/09/16 14:47:18;;;;;;;3.10;1.20;;;;;;;;;;5040927;28;20494;-51
2022/09/16 14:49:45;;;;;;;2.50;1.03;;;;;;;;;;5032572;28;20425;-51
2022/09/16 14:52:19;;;;;;;2.83;1.10;;;;;;;;;;5046318;28;20422;-50
2022/09/16 14:54:45;;;;;;;1.87;1.40;;;;;;;;;;5039147;28;20471;-49
2022/09/16 14:57:17;;;;;;;1.77;1.23;;;;;;;;;;5031963;28;20473;-51
2022/09/16 14:59:43;;;;;;;1.67;1.30;;;;;;;;;;5040834;28;20489;-48
2022/09/16 15:02:22;;;;;;;1.30;1.20;;;;;;;;;;5031162;28;20911;-49